www.winti-wetter.ch
Wetterdaten: aktuell Montag, 06.02.2023 03:20
Datum Zeit Temp. A. Feuchte A. Luftdruck Regen Wind Richtung Richtung Sonnenschein T Zeit Regen Solar Windben
06.02.2023 03:20 1.8 C 95 % 1037.6 hPa 0.0 l/m 4.0 km/h N-NO 23 0 min 0 min 0 W/m 8.0 km/h
06.02.2023 03:15 1.8 C 95 % 1037.5 hPa 0.0 l/m 3.5 km/h N-NO 28 0 min 0 min 0 W/m 9.7 km/h
06.02.2023 03:10 1.9 C 95 % 1037.6 hPa 0.0 l/m 6.5 km/h N-NO 18 0 min 0 min 0 W/m 12.9 km/h
06.02.2023 03:05 1.9 C 95 % 1037.7 hPa 0.0 l/m 4.4 km/h NO 40 0 min 0 min 0 W/m 9.7 km/h
06.02.2023 03:00 1.9 C 95 % 1037.8 hPa 0.0 l/m 4.0 km/h NO 55 0 min 0 min 0 W/m 9.7 km/h
06.02.2023 02:55 1.9 C 95 % 1037.8 hPa 0.0 l/m 6.3 km/h NO 34 0 min 0 min 0 W/m 12.9 km/h
06.02.2023 02:50 1.9 C 95 % 1037.8 hPa 0.0 l/m 7.1 km/h N 360 0 min 0 min 0 W/m 14.5 km/h
06.02.2023 02:45 1.9 C 95 % 1037.8 hPa 0.0 l/m 3.5 km/h NO 55 0 min 0 min 0 W/m 8.0 km/h
06.02.2023 02:40 1.9 C 95 % 1037.8 hPa 0.0 l/m 3.5 km/h NO 55 0 min 0 min 0 W/m 6.4 km/h
06.02.2023 02:35 1.9 C 95 % 1037.8 hPa 0.0 l/m 3.9 km/h N-NO 21 0 min 0 min 0 W/m 8.0 km/h
06.02.2023 02:30 1.9 C 95 % 1038.0 hPa 0.0 l/m 3.7 km/h NO 36 0 min 0 min 0 W/m 9.7 km/h
06.02.2023 02:25 2.0 C 95 % 1038.0 hPa 0.0 l/m 3.2 km/h N-NO 24 0 min 0 min 0 W/m 8.0 km/h
06.02.2023 02:20 1.9 C 95 % 1037.8 hPa 0.0 l/m 3.1 km/h NO 38 0 min 0 min 0 W/m 6.4 km/h
06.02.2023 02:15 2.0 C 95 % 1037.9 hPa 0.0 l/m 4.5 km/h O-NO 65 0 min 0 min 0 W/m 9.7 km/h
06.02.2023 02:10 2.0 C 95 % 1037.8 hPa 0.0 l/m 4.9 km/h N-NO 30 0 min 0 min 0 W/m 8.0 km/h
06.02.2023 02:05 2.0 C 95 % 1037.8 hPa 0.0 l/m 4.3 km/h NO 34 0 min 0 min 0 W/m 8.0 km/h
06.02.2023 02:00 2.0 C 95 % 1037.8 hPa 0.0 l/m 4.3 km/h N 5 0 min 0 min 0 W/m 6.4 km/h
06.02.2023 01:55 2.1 C 95 % 1037.9 hPa 0.0 l/m 4.3 km/h N 9 0 min 0 min 0 W/m 8.0 km/h
06.02.2023 01:50 2.1 C 95 % 1037.8 hPa 0.0 l/m 3.4 km/h N 5 0 min 0 min 0 W/m 6.4 km/h
06.02.2023 01:45 2.1 C 95 % 1037.8 hPa 0.0 l/m 2.5 km/h N 10 0 min 0 min 0 W/m 4.8 km/h
06.02.2023 01:40 2.1 C 95 % 1037.8 hPa 0.0 l/m 2.5 km/h N-NO 15 0 min 0 min 0 W/m 4.8 km/h
06.02.2023 01:35 2.1 C 95 % 1037.8 hPa 0.0 l/m 1.3 km/h N-NO 17 0 min 0 min 0 W/m 3.2 km/h
06.02.2023 01:30 2.1 C 94 % 1037.8 hPa 0.0 l/m 3.0 km/h N-NO 17 0 min 0 min 0 W/m 4.8 km/h
06.02.2023 01:25 2.1 C 94 % 1037.9 hPa 0.0 l/m 4.1 km/h N 11 0 min 0 min 0 W/m 8.0 km/h
06.02.2023 01:20 2.1 C 94 % 1037.9 hPa 0.0 l/m 3.6 km/h N-NO 12 0 min 0 min 0 W/m 6.4 km/h
06.02.2023 01:15 2.1 C 94 % 1037.8 hPa 0.0 l/m 3.2 km/h N 5 0 min 0 min 0 W/m 4.8 km/h
06.02.2023 01:10 2.1 C 94 % 1037.8 hPa 0.0 l/m 2.7 km/h N 5 0 min 0 min 0 W/m 4.8 km/h
06.02.2023 01:05 2.1 C 94 % 1037.7 hPa 0.0 l/m 2.5 km/h N 5 0 min 0 min 0 W/m 4.8 km/h
06.02.2023 01:00 2.1 C 94 % 1037.8 hPa 0.0 l/m 2.0 km/h N 5 0 min 0 min 0 W/m 3.2 km/h
06.02.2023 00:55 2.1 C 94 % 1037.8 hPa 0.0 l/m 2.0 km/h N 5 0 min 0 min 0 W/m 4.8 km/h
06.02.2023 00:50 2.1 C 95 % 1037.9 hPa 0.0 l/m 2.6 km/h N 5 0 min 0 min 0 W/m 4.8 km/h
06.02.2023 00:45 2.1 C 95 % 1037.7 hPa 0.0 l/m 1.9 km/h N 5 0 min 0 min 0 W/m 3.2 km/h
06.02.2023 00:40 2.2 C 95 % 1037.7 hPa 0.0 l/m 3.0 km/h N 5 0 min 0 min 0 W/m 6.4 km/h
06.02.2023 00:35 2.2 C 95 % 1037.6 hPa 0.0 l/m 3.3 km/h N 5 0 min 0 min 0 W/m 6.4 km/h
06.02.2023 00:30 2.2 C 95 % 1037.6 hPa 0.0 l/m 2.1 km/h N 5 0 min 0 min 0 W/m 4.8 km/h
06.02.2023 00:25 2.2 C 95 % 1037.5 hPa 0.0 l/m 2.0 km/h N 5 0 min 0 min 0 W/m 4.8 km/h
06.02.2023 00:20 2.2 C 95 % 1037.5 hPa 0.0 l/m 1.7 km/h N 5 0 min 0 min 0 W/m 3.2 km/h
06.02.2023 00:15 2.2 C 95 % 1037.4 hPa 0.0 l/m 2.4 km/h N 5 0 min 0 min 0 W/m 4.8 km/h
06.02.2023 00:10 2.2 C 95 % 1037.4 hPa 0.0 l/m 1.7 km/h N 5 0 min 0 min 0 W/m 4.8 km/h
06.02.2023 00:05 2.2 C 94 % 1037.4 hPa 0.0 l/m 2.4 km/h N 5 0 min 0 min 0 W/m 4.8 km/h
06.02.2023 00:00 2.2 C 94 % 1037.3 hPa 0.0 l/m 2.7 km/h N 5 0 min 0 min 0 W/m 6.4 km/h
05.02.2023 23:55 2.2 C 94 % 1037.1 hPa 0.0 l/m 1.9 km/h N-NO 26 0 min 0 min 0 W/m 3.2 km/h
05.02.2023 23:50 2.2 C 94 % 1037.0 hPa 0.0 l/m 1.5 km/h N-NO 26 0 min 0 min 0 W/m 4.8 km/h
05.02.2023 23:45 2.2 C 94 % 1037.1 hPa 0.0 l/m 2.8 km/h N 360 0 min 0 min 0 W/m 4.8 km/h
05.02.2023 23:40 2.2 C 94 % 1037.0 hPa 0.0 l/m 2.0 km/h N 360 0 min 0 min 0 W/m 4.8 km/h
05.02.2023 23:35 2.2 C 94 % 1037.0 hPa 0.0 l/m 2.9 km/h N 360 0 min 0 min 0 W/m 6.4 km/h
05.02.2023 23:30 2.2 C 94 % 1037.0 hPa 0.0 l/m 2.6 km/h N 10 0 min 0 min 0 W/m 4.8 km/h
05.02.2023 23:25 2.2 C 94 % 1036.9 hPa 0.0 l/m 2.3 km/h N 11 0 min 0 min 0 W/m 4.8 km/h
05.02.2023 23:20 2.2 C 94 % 1036.9 hPa 0.0 l/m 2.7 km/h N 11 0 min 0 min 0 W/m 6.4 km/h
05.02.2023 23:15 2.1 C 94 % 1036.7 hPa 0.0 l/m 1.9 km/h N 350 0 min 0 min 0 W/m 4.8 km/h
05.02.2023 23:10 2.1 C 94 % 1036.7 hPa 0.0 l/m 2.5 km/h N 350 0 min 0 min 0 W/m 4.8 km/h
05.02.2023 23:05 2.1 C 94 % 1036.8 hPa 0.0 l/m 2.9 km/h N-NW 348 0 min 0 min 0 W/m 6.4 km/h
05.02.2023 23:00 2.1 C 94 % 1036.9 hPa 0.0 l/m 2.8 km/h N-NW 327 0 min 0 min 0 W/m 4.8 km/h
05.02.2023 22:55 2.1 C 94 % 1036.8 hPa 0.0 l/m 4.4 km/h NW 323 0 min 0 min 0 W/m 6.4 km/h
05.02.2023 22:50 2.1 C 94 % 1036.7 hPa 0.0 l/m 3.8 km/h S-SO 167 0 min 0 min 0 W/m 6.4 km/h
05.02.2023 22:45 2.1 C 94 % 1036.5 hPa 0.0 l/m 3.4 km/h S-SO 167 0 min 0 min 0 W/m 6.4 km/h
05.02.2023 22:40 2.1 C 94 % 1036.5 hPa 0.0 l/m 1.4 km/h S-SO 167 0 min 0 min 0 W/m 6.4 km/h
05.02.2023 22:35 2.1 C 94 % 1036.4 hPa 0.0 l/m 0.6 km/h S-SO 167 0 min 0 min 0 W/m 1.6 km/h
05.02.2023 22:30 2.1 C 94 % 1036.3 hPa 0.0 l/m 0.1 km/h S-SO 167 0 min 0 min 0 W/m 1.6 km/h
05.02.2023 22:25 2.1 C 94 % 1036.3 hPa 0.0 l/m 0.2 km/h S-SO 167 0 min 0 min 0 W/m 1.6 km/h
05.02.2023 22:20 2.1 C 94 % 1036.3 hPa 0.0 l/m 0.9 km/h S-SO 167 0 min 0 min 0 W/m 4.8 km/h
05.02.2023 22:15 2.1 C 94 % 1036.2 hPa 0.0 l/m 1.3 km/h S-SO 167 0 min 0 min 0 W/m 6.4 km/h
05.02.2023 22:10 2.0 C 94 % 1036.2 hPa 0.0 l/m 1.1 km/h S 186 0 min 0 min 0 W/m 4.8 km/h
05.02.2023 22:05 2.0 C 94 % 1036.2 hPa 0.0 l/m 0.0 km/h S 186 0 min 0 min 0 W/m 1.6 km/h
05.02.2023 22:00 2.0 C 94 % 1036.2 hPa 0.0 l/m 1.0 km/h S 186 0 min 0 min 0 W/m 3.2 km/h
05.02.2023 21:55 2.0 C 94 % 1036.0 hPa 0.0 l/m 1.1 km/h S 186 0 min 0 min 0 W/m 3.2 km/h
05.02.2023 21:50 2.0 C 94 % 1036.0 hPa 0.0 l/m 1.6 km/h S 186 0 min 0 min 0 W/m 4.8 km/h
05.02.2023 21:45 1.9 C 94 % 1036.0 hPa 0.0 l/m 0.2 km/h S 186 0 min 0 min 0 W/m 1.6 km/h
05.02.2023 21:40 1.9 C 94 % 1035.9 hPa 0.0 l/m 2.0 km/h S 186 0 min 0 min 0 W/m 4.8 km/h
05.02.2023 21:35 1.9 C 94 % 1035.8 hPa 0.0 l/m 0.2 km/h S 186 0 min 0 min 0 W/m 3.2 km/h
05.02.2023 21:30 1.9 C 94 % 1035.8 hPa 0.0 l/m 0.0 km/h S 186 0 min 0 min 0 W/m 0.0 km/h
05.02.2023 21:25 1.9 C 94 % 1035.7 hPa 0.0 l/m 0.0 km/h S 186 0 min 0 min 0 W/m 0.0 km/h
05.02.2023 21:20 1.9 C 94 % 1035.7 hPa 0.0 l/m 0.1 km/h S 186 0 min 0 min 0 W/m 1.6 km/h
05.02.2023 21:15 1.9 C 94 % 1035.6 hPa 0.0 l/m 0.1 km/h S 186 0 min 0 min 0 W/m 1.6 km/h
05.02.2023 21:10 1.9 C 94 % 1035.6 hPa 0.0 l/m 0.2 km/h S 186 0 min 0 min 0 W/m 1.6 km/h
05.02.2023 21:05 1.9 C 94 % 1035.5 hPa 0.0 l/m 0.4 km/h S 186 0 min 0 min 0 W/m 3.2 km/h
05.02.2023 21:00 1.9 C 94 % 1035.6 hPa 0.0 l/m 1.5 km/h S 186 0 min 0 min 0 W/m 3.2 km/h
05.02.2023 20:55 1.9 C 94 % 1035.6 hPa 0.0 l/m 0.2 km/h S 186 0 min 0 min 0 W/m 1.6 km/h
05.02.2023 20:50 1.9 C 94 % 1035.6 hPa 0.0 l/m 0.2 km/h S 186 0 min 0 min 0 W/m 1.6 km/h
05.02.2023 20:45 1.9 C 94 % 1035.5 hPa 0.0 l/m 0.8 km/h S 186 0 min 0 min 0 W/m 3.2 km/h
05.02.2023 20:40 1.9 C 94 % 1035.4 hPa 0.0 l/m 1.0 km/h S 186 0 min 0 min 0 W/m 4.8 km/h
05.02.2023 20:35 1.9 C 94 % 1035.4 hPa 0.0 l/m 3.1 km/h S 186 0 min 0 min 0 W/m 6.4 km/h
05.02.2023 20:30 1.9 C 94 % 1035.4 hPa 0.0 l/m 3.1 km/h S 186 0 min 0 min 0 W/m 6.4 km/h
05.02.2023 20:25 1.9 C 94 % 1035.4 hPa 0.0 l/m 2.9 km/h S 186 0 min 0 min 0 W/m 6.4 km/h
05.02.2023 20:20 1.9 C 94 % 1035.2 hPa 0.0 l/m 2.5 km/h S 186 0 min 0 min 0 W/m 4.8 km/h
05.02.2023 20:15 1.9 C 94 % 1035.2 hPa 0.0 l/m 3.1 km/h S 186 0 min 0 min 0 W/m 4.8 km/h
05.02.2023 20:10 1.8 C 94 % 1035.2 hPa 0.0 l/m 3.2 km/h S-SO 165 0 min 0 min 0 W/m 6.4 km/h
05.02.2023 20:05 1.8 C 94 % 1035.1 hPa 0.0 l/m 4.3 km/h S-SO 164 0 min 0 min 0 W/m 8.0 km/h
05.02.2023 20:00 1.8 C 94 % 1035.1 hPa 0.0 l/m 2.0 km/h S-SO 164 0 min 0 min 0 W/m 6.4 km/h
05.02.2023 19:55 1.8 C 94 % 1035.1 hPa 0.0 l/m 3.4 km/h S-SO 164 0 min 0 min 0 W/m 8.0 km/h
05.02.2023 19:50 1.8 C 94 % 1035.1 hPa 0.0 l/m 4.9 km/h S 189 0 min 0 min 0 W/m 8.0 km/h
05.02.2023 19:45 1.8 C 94 % 1035.1 hPa 0.0 l/m 3.9 km/h S 181 0 min 0 min 0 W/m 8.0 km/h
05.02.2023 19:40 1.8 C 93 % 1035.2 hPa 0.0 l/m 4.4 km/h S 185 0 min 0 min 0 W/m 8.0 km/h
05.02.2023 19:35 1.8 C 93 % 1035.0 hPa 0.0 l/m 4.7 km/h S 176 0 min 0 min 0 W/m 8.0 km/h
05.02.2023 19:30 1.8 C 93 % 1035.0 hPa 0.0 l/m 5.9 km/h S 186 0 min 0 min 0 W/m 9.7 km/h
05.02.2023 19:25 1.9 C 93 % 1034.9 hPa 0.2 l/m 7.1 km/h S-SW 197 0 min 0 min 0 W/m 12.9 km/h
05.02.2023 19:20 1.9 C 93 % 1034.9 hPa 0.0 l/m 6.8 km/h S 175 0 min 0 min 0 W/m 11.3 km/h
05.02.2023 19:15 1.9 C 93 % 1034.9 hPa 0.0 l/m 6.5 km/h S 190 0 min 5 min 0 W/m 14.5 km/h
05.02.2023 19:10 1.9 C 93 % 1034.9 hPa 0.0 l/m 4.9 km/h S 182 0 min 0 min 0 W/m 9.7 km/h
05.02.2023 19:05 1.9 C 93 % 1035.0 hPa 0.0 l/m 5.8 km/h S 181 0 min 5 min 0 W/m 9.7 km/h
05.02.2023 19:00 1.9 C 93 % 1034.8 hPa 0.0 l/m 4.9 km/h S-SW 198 0 min 5 min 0 W/m 8.0 km/h
05.02.2023 18:55 2.0 C 93 % 1034.9 hPa 0.0 l/m 5.1 km/h S 188 0 min 5 min 0 W/m 9.7 km/h
05.02.2023 18:50 2.1 C 93 % 1034.9 hPa 0.0 l/m 5.3 km/h S 177 0 min 0 min 0 W/m 9.7 km/h
05.02.2023 18:45 2.1 C 93 % 1034.9 hPa 0.2 l/m 2.2 km/h S 191 0 min 5 min 0 W/m 4.8 km/h
05.02.2023 18:40 2.1 C 93 % 1034.8 hPa 0.0 l/m 3.8 km/h S 191 0 min 5 min 0 W/m 6.4 km/h
05.02.2023 18:35 2.1 C 93 % 1034.9 hPa 0.0 l/m 3.7 km/h S 178 0 min 0 min 0 W/m 8.0 km/h
05.02.2023 18:30 2.2 C 93 % 1034.8 hPa 0.0 l/m 3.8 km/h S-SO 163 0 min 0 min 0 W/m 8.0 km/h
05.02.2023 18:25 2.3 C 93 % 1034.9 hPa 0.2 l/m 6.3 km/h S-SO 159 0 min 0 min 0 W/m 9.7 km/h
05.02.2023 18:20 2.3 C 93 % 1034.8 hPa 0.0 l/m 4.9 km/h S-SO 162 0 min 4 min 0 W/m 8.0 km/h
05.02.2023 18:16 2.4 C 93 % 1034.7 hPa 0.0 l/m 5.2 km/h S 174 0 min 6 min 0 W/m 9.7 km/h
05.02.2023 18:10 2.4 C 93 % 1034.7 hPa 0.0 l/m 4.2 km/h S 186 0 min 5 min 0 W/m 8.0 km/h
05.02.2023 18:05 2.4 C 92 % 1034.6 hPa 0.0 l/m 3.5 km/h S 185 0 min 5 min 0 W/m 6.4 km/h
05.02.2023 18:00 2.5 C 93 % 1034.6 hPa 0.0 l/m 3.5 km/h S-SW 196 0 min 0 min 0 W/m 8.0 km/h
05.02.2023 17:55 2.6 C 93 % 1034.5 hPa 0.2 l/m 2.1 km/h SW 225 0 min 5 min 0 W/m 6.4 km/h
05.02.2023 17:50 2.6 C 93 % 1034.5 hPa 0.2 l/m 4.0 km/h SW 225 0 min 5 min 0 W/m 8.0 km/h
05.02.2023 17:45 2.7 C 92 % 1034.5 hPa 0.0 l/m 2.2 km/h SW 229 0 min 5 min 0 W/m 6.4 km/h
05.02.2023 17:40 2.7 C 92 % 1034.6 hPa 0.4 l/m 3.6 km/h SW 229 0 min 5 min 0 W/m 8.0 km/h
05.02.2023 17:35 2.8 C 92 % 1034.5 hPa 0.0 l/m 4.7 km/h SW 217 0 min 5 min 0 W/m 9.7 km/h
05.02.2023 17:30 2.9 C 92 % 1034.6 hPa 0.4 l/m 3.8 km/h SW 215 0 min 5 min 0 W/m 9.7 km/h
05.02.2023 17:25 3.0 C 92 % 1034.6 hPa 0.2 l/m 2.3 km/h W-SW 244 0 min 5 min 0 W/m 4.8 km/h
05.02.2023 17:20 3.1 C 92 % 1034.5 hPa 0.2 l/m 2.7 km/h W-SW 244 0 min 5 min 0 W/m 8.0 km/h
05.02.2023 17:15 3.1 C 92 % 1034.4 hPa 0.2 l/m 2.0 km/h SW 218 0 min 5 min 3 W/m 4.8 km/h
05.02.2023 17:10 3.1 C 92 % 1034.4 hPa 0.2 l/m 3.4 km/h SW 218 0 min 5 min 6 W/m 8.0 km/h
05.02.2023 17:05 3.2 C 92 % 1034.3 hPa 0.0 l/m 1.3 km/h S 187 0 min 5 min 6 W/m 4.8 km/h
05.02.2023 17:00 3.2 C 92 % 1034.3 hPa 0.2 l/m 1.5 km/h S 187 0 min 5 min 7 W/m 3.2 km/h
05.02.2023 16:55 3.2 C 92 % 1034.2 hPa 0.2 l/m 2.9 km/h S 187 0 min 5 min 9 W/m 6.4 km/h
05.02.2023 16:50 3.2 C 92 % 1034.3 hPa 0.0 l/m 1.6 km/h S-SW 208 0 min 5 min 11 W/m 4.8 km/h
05.02.2023 16:45 3.2 C 92 % 1034.3 hPa 0.2 l/m 3.0 km/h S-SW 204 0 min 5 min 12 W/m 6.4 km/h
05.02.2023 16:40 3.2 C 92 % 1034.3 hPa 0.0 l/m 4.3 km/h S 185 0 min 5 min 13 W/m 9.7 km/h
05.02.2023 16:35 3.2 C 92 % 1034.3 hPa 0.2 l/m 4.2 km/h S-SW 192 0 min 5 min 13 W/m 8.0 km/h
05.02.2023 16:30 3.2 C 92 % 1034.3 hPa 0.0 l/m 4.6 km/h S 184 0 min 5 min 18 W/m 11.3 km/h
05.02.2023 16:25 3.2 C 92 % 1034.3 hPa 0.0 l/m 2.8 km/h S-SW 208 0 min 5 min 17 W/m 4.8 km/h
05.02.2023 16:20 3.2 C 92 % 1034.2 hPa 0.0 l/m 4.3 km/h SW 227 0 min 5 min 20 W/m 6.4 km/h
05.02.2023 16:15 3.3 C 92 % 1034.3 hPa 0.0 l/m 3.7 km/h S-SW 213 0 min 5 min 28 W/m 6.4 km/h
05.02.2023 16:10 3.3 C 92 % 1034.3 hPa 0.2 l/m 4.0 km/h SW 229 0 min 0 min 30 W/m 8.0 km/h
05.02.2023 16:05 3.2 C 92 % 1034.4 hPa 0.0 l/m 3.4 km/h SW 223 0 min 5 min 36 W/m 6.4 km/h
05.02.2023 16:00 3.2 C 92 % 1034.4 hPa 0.0 l/m 7.1 km/h W-SW 247 0 min 5 min 43 W/m 12.9 km/h
05.02.2023 15:55 3.2 C 92 % 1034.5 hPa 0.2 l/m 3.9 km/h S-SW 200 0 min 5 min 33 W/m 8.0 km/h
05.02.2023 15:50 3.3 C 92 % 1034.6 hPa 0.0 l/m 4.0 km/h S-SW 201 0 min 5 min 29 W/m 6.4 km/h
05.02.2023 15:45 3.3 C 92 % 1034.5 hPa 0.0 l/m 4.2 km/h S-SW 213 0 min 5 min 37 W/m 8.0 km/h
05.02.2023 15:40 3.3 C 92 % 1034.5 hPa 0.2 l/m 4.3 km/h S-SW 195 0 min 5 min 46 W/m 9.7 km/h
05.02.2023 15:35 3.4 C 92 % 1034.5 hPa 0.0 l/m 5.3 km/h S-SW 200 0 min 5 min 52 W/m 11.3 km/h
05.02.2023 15:30 3.4 C 92 % 1034.5 hPa 0.2 l/m 5.0 km/h S-SW 194 0 min 5 min 51 W/m 9.7 km/h
05.02.2023 15:25 3.3 C 91 % 1034.7 hPa 0.0 l/m 4.4 km/h S 189 0 min 5 min 55 W/m 9.7 km/h
05.02.2023 15:20 3.3 C 91 % 1034.7 hPa 0.0 l/m 5.4 km/h S 188 0 min 5 min 60 W/m 11.3 km/h
05.02.2023 15:15 3.3 C 91 % 1034.8 hPa 0.0 l/m 5.0 km/h S 187 0 min 0 min 60 W/m 8.0 km/h
05.02.2023 15:10 3.3 C 91 % 1034.7 hPa 0.0 l/m 6.1 km/h S-SW 210 0 min 5 min 58 W/m 11.3 km/h
05.02.2023 15:05 3.3 C 91 % 1034.8 hPa 0.0 l/m 5.4 km/h S-SW 211 0 min 0 min 51 W/m 9.7 km/h
05.02.2023 15:00 3.3 C 91 % 1034.9 hPa 0.0 l/m 5.4 km/h S-SW 212 0 min 0 min 43 W/m 14.5 km/h
05.02.2023 14:55 3.3 C 91 % 1034.9 hPa 0.0 l/m 5.4 km/h SW 220 0 min 5 min 44 W/m 12.9 km/h
05.02.2023 14:50 3.2 C 91 % 1034.9 hPa 0.0 l/m 5.6 km/h S-SW 209 0 min 0 min 48 W/m 9.7 km/h
05.02.2023 14:45 3.2 C 90 % 1035.0 hPa 0.0 l/m 5.6 km/h S-SW 211 0 min 0 min 49 W/m 11.3 km/h
05.02.2023 14:40 3.2 C 90 % 1035.2 hPa 0.0 l/m 6.2 km/h S-SW 205 0 min 5 min 56 W/m 11.3 km/h
05.02.2023 14:35 3.3 C 90 % 1035.3 hPa 0.2 l/m 3.8 km/h W-SW 238 0 min 0 min 66 W/m 8.0 km/h
05.02.2023 14:30 3.2 C 90 % 1035.4 hPa 0.0 l/m 3.5 km/h SW 234 0 min 0 min 64 W/m 8.0 km/h
05.02.2023 14:25 3.2 C 90 % 1035.5 hPa 0.0 l/m 4.2 km/h S-SW 209 0 min 0 min 68 W/m 8.0 km/h
05.02.2023 14:20 3.3 C 90 % 1035.5 hPa 0.0 l/m 3.0 km/h SW 225 0 min 0 min 72 W/m 6.4 km/h
05.02.2023 14:15 3.3 C 89 % 1035.6 hPa 0.2 l/m 3.9 km/h SW 221 0 min 5 min 70 W/m 9.7 km/h
05.02.2023 14:10 3.4 C 89 % 1035.6 hPa 0.0 l/m 1.2 km/h SW 218 0 min 5 min 62 W/m 6.4 km/h
05.02.2023 14:05 3.3 C 88 % 1035.7 hPa 0.0 l/m 3.2 km/h W-SW 251 0 min 5 min 65 W/m 8.0 km/h
05.02.2023 14:00 3.4 C 88 % 1035.9 hPa 0.0 l/m 5.1 km/h SW 223 0 min 0 min 75 W/m 11.3 km/h
05.02.2023 13:55 3.4 C 88 % 1035.8 hPa 0.0 l/m 5.3 km/h W-SW 252 0 min 5 min 74 W/m 11.3 km/h
05.02.2023 13:50 3.6 C 88 % 1035.9 hPa 0.0 l/m 6.8 km/h SW 232 0 min 5 min 81 W/m 12.9 km/h
05.02.2023 13:45 3.7 C 88 % 1036.1 hPa 0.0 l/m 4.4 km/h SW 229 0 min 5 min 93 W/m 9.7 km/h
05.02.2023 13:40 3.8 C 88 % 1036.2 hPa 0.2 l/m 3.5 km/h W-SW 255 0 min 0 min 118 W/m 6.4 km/h
05.02.2023 13:35 3.8 C 88 % 1036.1 hPa 0.0 l/m 4.2 km/h W-SW 247 0 min 5 min 134 W/m 9.7 km/h
05.02.2023 13:30 3.7 C 88 % 1036.1 hPa 0.0 l/m 6.0 km/h S-SW 210 0 min 5 min 153 W/m 14.5 km/h
05.02.2023 13:25 3.8 C 89 % 1036.2 hPa 0.0 l/m 6.0 km/h SW 220 0 min 0 min 155 W/m 12.9 km/h
05.02.2023 13:20 3.8 C 88 % 1036.2 hPa 0.0 l/m 8.1 km/h W-SW 241 0 min 5 min 164 W/m 14.5 km/h
05.02.2023 13:15 3.9 C 89 % 1036.2 hPa 0.0 l/m 6.8 km/h W 271 0 min 5 min 158 W/m 17.7 km/h
05.02.2023 13:10 3.8 C 88 % 1036.3 hPa 0.0 l/m 5.7 km/h W-SW 258 0 min 0 min 156 W/m 11.3 km/h
05.02.2023 13:05 3.8 C 90 % 1036.2 hPa 0.0 l/m 3.6 km/h W-SW 239 0 min 5 min 159 W/m 6.4 km/h
05.02.2023 13:00 3.6 C 89 % 1036.2 hPa 0.0 l/m 6.0 km/h SW 219 0 min 0 min 160 W/m 9.7 km/h
05.02.2023 12:55 3.6 C 89 % 1036.3 hPa 0.0 l/m 7.2 km/h S-SW 208 0 min 0 min 147 W/m 16.1 km/h
05.02.2023 12:50 3.8 C 90 % 1036.4 hPa 0.0 l/m 5.1 km/h SW 221 0 min 0 min 173 W/m 9.7 km/h
05.02.2023 12:45 3.6 C 90 % 1036.4 hPa 0.0 l/m 4.7 km/h W 260 0 min 0 min 151 W/m 11.3 km/h
05.02.2023 12:40 3.4 C 90 % 1036.4 hPa 0.0 l/m 4.2 km/h SW 217 0 min 0 min 132 W/m 6.4 km/h
05.02.2023 12:35 3.3 C 90 % 1036.4 hPa 0.0 l/m 5.6 km/h SW 214 0 min 0 min 122 W/m 9.7 km/h
05.02.2023 12:30 3.2 C 90 % 1036.6 hPa 0.0 l/m 4.3 km/h SW 229 0 min 0 min 112 W/m 12.9 km/h
05.02.2023 12:25 3.2 C 90 % 1036.6 hPa 0.0 l/m 4.7 km/h S-SW 205 0 min 0 min 108 W/m 9.7 km/h
05.02.2023 12:20 3.3 C 90 % 1036.6 hPa 0.0 l/m 6.4 km/h SW 232 0 min 0 min 89 W/m 14.5 km/h
05.02.2023 12:15 3.4 C 90 % 1036.7 hPa 0.0 l/m 8.1 km/h W-NW 294 0 min 0 min 61 W/m 14.5 km/h
05.02.2023 12:10 3.5 C 90 % 1036.7 hPa 0.0 l/m 3.6 km/h W-SW 256 0 min 0 min 77 W/m 6.4 km/h
05.02.2023 12:05 3.6 C 90 % 1036.8 hPa 0.0 l/m 8.9 km/h S-SW 206 0 min 0 min 98 W/m 16.1 km/h
05.02.2023 12:00 3.8 C 91 % 1036.7 hPa 0.0 l/m 5.5 km/h SW 227 0 min 0 min 139 W/m 14.5 km/h
05.02.2023 11:55 3.6 C 91 % 1036.7 hPa 0.0 l/m 6.7 km/h S-SO 164 0 min 0 min 154 W/m 12.9 km/h
05.02.2023 11:50 3.6 C 91 % 1036.8 hPa 0.0 l/m 6.5 km/h SW 217 0 min 0 min 175 W/m 14.5 km/h
05.02.2023 11:45 3.6 C 91 % 1036.7 hPa 0.0 l/m 7.3 km/h W 277 0 min 0 min 200 W/m 12.9 km/h
05.02.2023 11:40 3.7 C 92 % 1036.6 hPa 0.0 l/m 4.9 km/h W 277 0 min 0 min 219 W/m 11.3 km/h
05.02.2023 11:35 3.6 C 92 % 1036.6 hPa 0.0 l/m 5.1 km/h SW 234 0 min 0 min 225 W/m 9.7 km/h
05.02.2023 11:30 3.4 C 92 % 1036.7 hPa 0.0 l/m 4.8 km/h S-SW 209 0 min 0 min 195 W/m 9.7 km/h
05.02.2023 11:25 3.2 C 93 % 1036.7 hPa 0.0 l/m 5.9 km/h SW 214 0 min 0 min 168 W/m 11.3 km/h
05.02.2023 11:20 3.1 C 93 % 1036.8 hPa 0.0 l/m 7.7 km/h S 180 0 min 0 min 161 W/m 14.5 km/h
05.02.2023 11:15 2.9 C 93 % 1037.1 hPa 0.0 l/m 7.3 km/h SW 215 0 min 0 min 160 W/m 16.1 km/h
05.02.2023 11:10 2.7 C 94 % 1037.0 hPa 0.0 l/m 7.2 km/h S-SW 205 0 min 0 min 154 W/m 11.3 km/h
05.02.2023 11:05 2.5 C 93 % 1037.0 hPa 0.0 l/m 7.3 km/h S-SW 193 0 min 0 min 142 W/m 12.9 km/h
05.02.2023 11:00 2.5 C 94 % 1037.4 hPa 0.0 l/m 4.5 km/h S-SW 212 0 min 0 min 125 W/m 8.0 km/h
05.02.2023 10:55 2.3 C 93 % 1037.5 hPa 0.0 l/m 5.1 km/h S-SW 208 0 min 0 min 113 W/m 11.3 km/h
05.02.2023 10:50 2.2 C 93 % 1037.7 hPa 0.0 l/m 7.0 km/h SW 232 0 min 0 min 110 W/m 12.9 km/h
05.02.2023 10:45 2.3 C 93 % 1037.7 hPa 0.0 l/m 5.1 km/h S-SW 211 0 min 0 min 124 W/m 9.7 km/h
05.02.2023 10:40 2.4 C 94 % 1037.8 hPa 0.0 l/m 4.5 km/h W 263 0 min 0 min 169 W/m 8.0 km/h
05.02.2023 10:35 2.4 C 94 % 1037.9 hPa 0.0 l/m 4.7 km/h S-SW 205 0 min 0 min 190 W/m 9.7 km/h
05.02.2023 10:30 2.2 C 94 % 1038.0 hPa 0.0 l/m 4.0 km/h S-SW 198 0 min 0 min 190 W/m 8.0 km/h
05.02.2023 10:25 2.2 C 94 % 1038.0 hPa 0.0 l/m 5.4 km/h S-SO 162 0 min 0 min 180 W/m 11.3 km/h
05.02.2023 10:20 1.8 C 94 % 1038.0 hPa 0.0 l/m 7.5 km/h S 184 0 min 0 min 175 W/m 14.5 km/h
05.02.2023 10:15 1.7 C 94 % 1038.0 hPa 0.0 l/m 8.2 km/h S-SW 195 0 min 0 min 141 W/m 16.1 km/h
05.02.2023 10:10 1.5 C 95 % 1038.1 hPa 0.0 l/m 6.6 km/h S 171 0 min 0 min 137 W/m 16.1 km/h
05.02.2023 10:05 1.3 C 95 % 1038.1 hPa 0.0 l/m 7.7 km/h S 171 0 min 0 min 103 W/m 14.5 km/h
05.02.2023 10:00 1.2 C 95 % 1038.2 hPa 0.0 l/m 7.2 km/h S 173 0 min 0 min 107 W/m 16.1 km/h
05.02.2023 09:55 1.1 C 95 % 1038.3 hPa 0.0 l/m 9.2 km/h S-SW 192 0 min 0 min 141 W/m 14.5 km/h
05.02.2023 09:50 1.2 C 95 % 1038.3 hPa 0.0 l/m 6.9 km/h S 190 5 min 0 min 243 W/m 12.9 km/h
05.02.2023 09:45 0.8 C 95 % 1038.3 hPa 0.0 l/m 7.6 km/h S 171 5 min 0 min 220 W/m 12.9 km/h
05.02.2023 09:40 0.7 C 95 % 1038.2 hPa 0.0 l/m 5.5 km/h S 184 5 min 0 min 182 W/m 9.7 km/h
05.02.2023 09:35 0.7 C 95 % 1038.2 hPa 0.0 l/m 4.5 km/h S 171 5 min 0 min 141 W/m 8.0 km/h
05.02.2023 09:30 0.6 C 95 % 1038.3 hPa 0.0 l/m 5.6 km/h S 186 0 min 0 min 129 W/m 9.7 km/h
05.02.2023 09:25 0.4 C 95 % 1038.2 hPa 0.0 l/m 6.2 km/h S 186 0 min 0 min 88 W/m 9.7 km/h
05.02.2023 09:20 0.2 C 95 % 1038.2 hPa 0.0 l/m 4.4 km/h S-SO 167 0 min 0 min 65 W/m 8.0 km/h
05.02.2023 09:15 0.1 C 95 % 1038.3 hPa 0.0 l/m 3.5 km/h S-SO 161 0 min 0 min 57 W/m 8.0 km/h
05.02.2023 09:10 -0.1 C 95 % 1038.3 hPa 0.0 l/m 2.1 km/h SO 135 0 min 0 min 59 W/m 6.4 km/h
05.02.2023 09:05 -0.1 C 95 % 1038.4 hPa 0.0 l/m 0.0 km/h SO 135 0 min 0 min 60 W/m 0.0 km/h
05.02.2023 09:00 -0.2 C 95 % 1038.4 hPa 0.0 l/m 0.0 km/h SO 135 0 min 0 min 55 W/m 0.0 km/h
05.02.2023 08:55 -0.2 C 95 % 1038.4 hPa 0.0 l/m 0.1 km/h SO 135 0 min 0 min 47 W/m 1.6 km/h
05.02.2023 08:50 -0.2 C 95 % 1038.3 hPa 0.0 l/m 1.6 km/h SO 135 0 min 0 min 49 W/m 3.2 km/h
05.02.2023 08:45 -0.2 C 95 % 1038.2 hPa 0.0 l/m 1.3 km/h SO 135 0 min 0 min 45 W/m 3.2 km/h
05.02.2023 08:40 -0.3 C 94 % 1038.1 hPa 0.0 l/m 0.5 km/h SO 135 0 min 0 min 39 W/m 1.6 km/h
05.02.2023 08:35 -0.3 C 94 % 1038.1 hPa 0.0 l/m 0.4 km/h SO 135 0 min 0 min 36 W/m 3.2 km/h
05.02.2023 08:30 -0.3 C 94 % 1038.1 hPa 0.0 l/m 1.6 km/h SO 135 0 min 0 min 30 W/m 4.8 km/h
05.02.2023 08:25 -0.3 C 94 % 1038.0 hPa 0.0 l/m 2.2 km/h SO 135 0 min 0 min 20 W/m 4.8 km/h
05.02.2023 08:20 -0.3 C 94 % 1037.9 hPa 0.0 l/m 2.8 km/h SO 135 0 min 0 min 16 W/m 6.4 km/h
05.02.2023 08:15 -0.3 C 94 % 1037.9 hPa 0.0 l/m 0.1 km/h N-NO 16 0 min 0 min 15 W/m 1.6 km/h
05.02.2023 08:10 -0.3 C 94 % 1037.8 hPa 0.0 l/m 1.0 km/h N-NO 16 0 min 0 min 12 W/m 3.2 km/h
05.02.2023 08:05 -0.2 C 94 % 1037.9 hPa 0.0 l/m 0.0 km/h N-NO 16 0 min 0 min 11 W/m 0.0 km/h
05.02.2023 08:00 -0.2 C 94 % 1037.7 hPa 0.0 l/m 0.0 km/h N-NO 16 0 min 0 min 9 W/m 0.0 km/h
05.02.2023 07:55 -0.2 C 94 % 1037.7 hPa 0.0 l/m 0.5 km/h N-NO 16 0 min 0 min 7 W/m 1.6 km/h
05.02.2023 07:50 -0.2 C 94 % 1037.8 hPa 0.0 l/m 0.0 km/h N-NO 16 0 min 0 min 5 W/m 0.0 km/h
05.02.2023 07:45 -0.2 C 94 % 1037.7 hPa 0.0 l/m 0.0 km/h N-NO 16 0 min 0 min 2 W/m 0.0 km/h
05.02.2023 07:40 -0.2 C 94 % 1037.5 hPa 0.0 l/m 0.0 km/h N-NO 16 0 min 0 min 0 W/m 0.0 km/h
05.02.2023 07:35 -0.2 C 94 % 1037.6 hPa 0.0 l/m 0.3 km/h N-NO 16 0 min 0 min 0 W/m 1.6 km/h
05.02.2023 07:30 -0.3 C 94 % 1037.6 hPa 0.0 l/m 1.0 km/h N-NO 16 0 min 0 min 0 W/m 1.6 km/h
05.02.2023 07:25 -0.3 C 94 % 1037.6 hPa 0.0 l/m 0.0 km/h N-NO 16 0 min 0 min 0 W/m 1.6 km/h
05.02.2023 07:20 -0.4 C 94 % 1037.5 hPa 0.0 l/m 0.0 km/h N-NO 16 0 min 0 min 0 W/m 0.0 km/h
05.02.2023 07:15 -0.4 C 94 % 1037.5 hPa 0.0 l/m 0.5 km/h N-NO 16 0 min 0 min 0 W/m 1.6 km/h
05.02.2023 07:10 -0.4 C 94 % 1037.4 hPa 0.0 l/m 0.1 km/h N-NO 16 0 min 0 min 0 W/m 1.6 km/h
05.02.2023 07:05 -0.5 C 94 % 1037.5 hPa 0.0 l/m 0.6 km/h N-NO 16 0 min 0 min 0 W/m 1.6 km/h
05.02.2023 07:00 -0.6 C 94 % 1037.4 hPa 0.0 l/m 1.7 km/h N-NO 16 0 min 0 min 0 W/m 3.2 km/h
05.02.2023 06:55 -0.6 C 94 % 1037.4 hPa 0.0 l/m 0.8 km/h N-NO 16 0 min 0 min 0 W/m 3.2 km/h
05.02.2023 06:50 -0.7 C 94 % 1037.5 hPa 0.0 l/m 1.3 km/h N-NO 16 0 min 0 min 0 W/m 3.2 km/h
05.02.2023 06:45 -0.7 C 94 % 1037.3 hPa 0.0 l/m 1.3 km/h N-NO 16 0 min 0 min 0 W/m 3.2 km/h
05.02.2023 06:40 -0.8 C 94 % 1037.3 hPa 0.0 l/m 1.7 km/h N-NO 16 0 min 0 min 0 W/m 3.2 km/h
05.02.2023 06:35 -0.9 C 94 % 1037.3 hPa 0.0 l/m 0.3 km/h N-NO 16 0 min 0 min 0 W/m 4.8 km/h
05.02.2023 06:30 -1.1 C 94 % 1037.3 hPa 0.0 l/m 0.0 km/h N-NO 16 0 min 0 min 0 W/m 0.0 km/h
05.02.2023 06:25 -1.2 C 94 % 1037.1 hPa 0.0 l/m 0.0 km/h N-NO 16 0 min 0 min 0 W/m 0.0 km/h
05.02.2023 06:20 -1.2 C 94 % 1037.3 hPa 0.0 l/m 0.0 km/h N-NO 16 0 min 0 min 0 W/m 0.0 km/h
05.02.2023 06:15 -1.2 C 94 % 1037.1 hPa 0.0 l/m 0.0 km/h N-NO 16 0 min 0 min 0 W/m 0.0 km/h
05.02.2023 06:10 -1.2 C 93 % 1037.0 hPa 0.0 l/m 0.0 km/h N-NO 16 0 min 0 min 0 W/m 0.0 km/h
05.02.2023 06:05 -1.2 C 93 % 1037.1 hPa 0.0 l/m 0.0 km/h N-NO 16 0 min 0 min 0 W/m 0.0 km/h
05.02.2023 06:00 -1.2 C 93 % 1037.1 hPa 0.0 l/m 0.0 km/h N-NO 16 0 min 0 min 0 W/m 0.0 km/h
05.02.2023 05:55 -1.2 C 94 % 1037.2 hPa 0.0 l/m 0.0 km/h N-NO 16 0 min 0 min 0 W/m 0.0 km/h
05.02.2023 05:50 -1.1 C 94 % 1037.1 hPa 0.0 l/m 0.0 km/h N-NO 16 0 min 0 min 0 W/m 0.0 km/h
05.02.2023 05:45 -1.1 C 94 % 1037.1 hPa 0.0 l/m 0.0 km/h N 0 0 min 0 min 0 W/m 0.0 km/h
05.02.2023 05:40 -1.1 C 93 % 1036.9 hPa 0.0 l/m 0.0 km/h N 0 0 min 0 min 0 W/m 0.0 km/h
05.02.2023 05:35 -1.0 C 93 % 1036.9 hPa 0.0 l/m 0.0 km/h N 0 0 min 0 min 0 W/m 0.0 km/h
05.02.2023 05:30 -0.9 C 93 % 1037.1 hPa 0.0 l/m 0.0 km/h N 0 0 min 0 min 0 W/m 0.0 km/h
05.02.2023 05:25 -0.9 C 93 % 1037.1 hPa 0.0 l/m 0.0 km/h N 0 0 min 0 min 0 W/m 0.0 km/h
05.02.2023 05:20 -0.8 C 93 % 1037.1 hPa 0.0 l/m 0.0 km/h N-NO 16 0 min 0 min 0 W/m 0.0 km/h
05.02.2023 05:15 -0.8 C 93 % 1037.1 hPa 0.0 l/m 0.0 km/h N-NO 16 0 min 0 min 0 W/m 0.0 km/h
05.02.2023 05:10 -0.7 C 93 % 1037.1 hPa 0.0 l/m 0.0 km/h N-NO 16 0 min 0 min 0 W/m 0.0 km/h
05.02.2023 05:05 -0.6 C 93 % 1037.1 hPa 0.0 l/m 0.0 km/h N-NO 16 0 min 0 min 0 W/m 0.0 km/h
05.02.2023 05:00 -0.5 C 93 % 1037.1 hPa 0.0 l/m 0.0 km/h N-NO 16 0 min 0 min 0 W/m 0.0 km/h
05.02.2023 04:55 -0.4 C 93 % 1037.1 hPa 0.0 l/m 0.0 km/h N-NO 16 0 min 0 min 0 W/m 0.0 km/h
05.02.2023 04:50 -0.3 C 93 % 1037.2 hPa 0.0 l/m 0.0 km/h N-NO 16 0 min 0 min 0 W/m 0.0 km/h
05.02.2023 04:45 -0.2 C 93 % 1037.3 hPa 0.0 l/m 0.0 km/h N-NO 16 0 min 0 min 0 W/m 0.0 km/h
05.02.2023 04:40 -0.1 C 93 % 1037.2 hPa 0.0 l/m 0.0 km/h N-NO 16 0 min 0 min 0 W/m 0.0 km/h
05.02.2023 04:35 0.1 C 93 % 1037.3 hPa 0.0 l/m 0.0 km/h N-NO 16 0 min 0 min 0 W/m 0.0 km/h
05.02.2023 04:30 0.2 C 93 % 1037.3 hPa 0.0 l/m 0.0 km/h N-NO 16 0 min 0 min 0 W/m 0.0 km/h
05.02.2023 04:25 0.2 C 93 % 1037.3 hPa 0.0 l/m 0.0 km/h N-NO 16 0 min 0 min 0 W/m 0.0 km/h
05.02.2023 04:20 0.3 C 93 % 1037.3 hPa 0.0 l/m 0.0 km/h N-NO 16 0 min 0 min 0 W/m 0.0 km/h
05.02.2023 04:15 0.4 C 93 % 1037.4 hPa 0.0 l/m 0.0 km/h N-NO 16 0 min 0 min 0 W/m 0.0 km/h
05.02.2023 04:10 0.6 C 93 % 1037.5 hPa 0.0 l/m 0.0 km/h N-NO 16 0 min 0 min 0 W/m 0.0 km/h
05.02.2023 04:05 0.6 C 93 % 1037.4 hPa 0.0 l/m 0.0 km/h N-NO 16 0 min 0 min 0 W/m 0.0 km/h
05.02.2023 04:00 0.7 C 93 % 1037.5 hPa 0.0 l/m 0.0 km/h N-NO 16 0 min 0 min 0 W/m 0.0 km/h
_ Min-Zeit 05:55 13:10 16:20 - 04:00 - - - - - 04:00
Minimum _ -1.2 C 88 % 1034.2 hPa - 0.0 km/h - - - - - 0.0 km/h
_ Max-Zeit 13:15 08:45 08:55 17:30 09:55 - - 09:35 18:16 09:50 13:15
Maximum _ 3.9 C 95 % 1038.4 hPa 0.4 l/m 9.2 km/h
S-SW
- - 5 min 6 min 243 W/m 17.7 km/h
W-SW
Durchschnitt _ 1.7 C 93 % 1036.6 hPa #4.8 l/m 2.9 km/h S - #0 min. #0 min. 0 W/m 6.0 km/h